Time;durP1;ratioP1;P1;durP2;ratioP2;P2;SDS_P1;SDS_P2;PMS_P1;PMS_P2;Temp;Humidity;BMP_temperature;BMP_pressure;BME280_temperature;BME280_humidity;BME280_pressure;Samples;Min_cycle;Max_cycle;Signal;HPM_P1;HPM_P2
2021/06/20 00:00:20;;;;;;;4.63;4.22;;;23.20;99.90;;;;;;4852654;29;20419;-78
2021/06/20 00:02:48;;;;;;;4.45;4.13;;;23.30;99.90;;;;;;4875238;29;20419;-78
2021/06/20 00:05:18;;;;;;;4.15;3.85;;;23.20;99.90;;;;;;4884835;29;20417;-79
2021/06/20 00:07:45;;;;;;;5.05;4.55;;;23.20;99.90;;;;;;4875118;29;20419;-79
2021/06/20 00:10:11;;;;;;;6.78;4.40;;;23.20;99.90;;;;;;4872378;29;20669;-82
2021/06/20 00:12:38;;;;;;;4.70;4.30;;;23.20;99.90;;;;;;4864515;29;20442;-78
2021/06/20 00:15:06;;;;;;;4.38;3.97;;;23.20;99.90;;;;;;4884909;29;20494;-77
2021/06/20 00:17:31;;;;;;;4.57;4.18;;;23.20;99.90;;;;;;4860775;29;20429;-77
2021/06/20 00:19:57;;;;;;;5.20;4.70;;;23.20;99.90;;;;;;4879217;29;20401;-77
2021/06/20 00:22:23;;;;;;;4.80;4.40;;;23.10;99.90;;;;;;4843164;29;20500;-77
2021/06/20 00:24:48;;;;;;;5.13;4.15;;;23.10;99.90;;;;;;4888742;29;20433;-78
2021/06/20 00:27:14;;;;;;;4.37;4.07;;;23.10;99.90;;;;;;4862915;29;20756;-78
2021/06/20 00:29:40;;;;;;;4.47;3.80;;;23.10;99.90;;;;;;4873333;29;20421;-78
2021/06/20 00:32:05;;;;;;;4.22;3.92;;;23.10;99.90;;;;;;4897273;29;20443;-77
2021/06/20 00:34:31;;;;;;;4.73;4.33;;;23.00;99.90;;;;;;4860024;29;20978;-77
2021/06/20 00:36:57;;;;;;;4.80;4.40;;;23.00;99.90;;;;;;4861198;29;20417;-78
2021/06/20 00:39:22;;;;;;;5.13;4.30;;;23.10;99.90;;;;;;4841348;29;20395;-77
2021/06/20 00:41:48;;;;;;;4.73;4.33;;;22.90;99.90;;;;;;4876709;29;20409;-77
2021/06/20 00:44:14;;;;;;;4.53;4.13;;;22.90;99.90;;;;;;4870286;29;20409;-78
2021/06/20 00:46:39;;;;;;;4.87;4.37;;;22.90;99.90;;;;;;4854604;29;20409;-78
2021/06/20 00:49:05;;;;;;;4.90;4.20;;;22.80;99.90;;;;;;4860246;29;20405;-77
2021/06/20 00:51:31;;;;;;;4.65;4.25;;;22.80;99.90;;;;;;4873286;29;20407;-78
2021/06/20 00:53:56;;;;;;;4.60;4.20;;;22.80;99.90;;;;;;4842901;29;20788;-77
2021/06/20 00:56:22;;;;;;;4.97;4.57;;;22.70;99.90;;;;;;4852606;29;21308;-79
2021/06/20 00:58:48;;;;;;;4.47;4.17;;;22.70;99.90;;;;;;4875178;29;20399;-78
2021/06/20 01:01:13;;;;;;;4.60;4.20;;;22.70;99.90;;;;;;4892893;29;20612;-78
2021/06/20 01:03:39;;;;;;;4.72;4.32;;;22.70;99.90;;;;;;4859816;29;20403;-76
2021/06/20 01:06:05;;;;;;;5.13;4.63;;;22.60;99.90;;;;;;4867368;29;20503;-78
2021/06/20 01:08:30;;;;;;;8.47;4.90;;;22.50;99.90;;;;;;4862148;29;20403;-77
2021/06/20 01:10:56;;;;;;;4.60;4.20;;;22.50;99.90;;;;;;4847258;29;20449;-77
2021/06/20 01:13:22;;;;;;;4.97;4.57;;;22.50;99.90;;;;;;4856435;29;20483;-78
2021/06/20 01:15:50;;;;;;;4.30;4.00;;;22.40;99.90;;;;;;4845769;29;20403;-78
2021/06/20 01:18:16;;;;;;;4.82;4.43;;;22.40;99.90;;;;;;4858974;29;20506;-77
2021/06/20 01:20:42;;;;;;;4.38;4.00;;;22.40;99.90;;;;;;4862224;29;20429;-79
2021/06/20 01:23:07;;;;;;;4.45;4.15;;;22.30;99.90;;;;;;4860382;29;20413;-77
2021/06/20 01:25:34;;;;;;;4.63;4.23;;;22.30;99.90;;;;;;4846434;29;20776;-78
2021/06/20 01:28:04;;;;;;;4.80;4.40;;;22.30;99.90;;;;;;4872116;29;20484;-77
2021/06/20 01:30:31;;;;;;;4.95;4.47;;;22.30;99.90;;;;;;4888847;29;20423;-78
2021/06/20 01:32:58;;;;;;;4.75;4.35;;;22.20;99.90;;;;;;4869572;29;21075;-77
2021/06/20 01:35:24;;;;;;;4.77;4.37;;;22.20;99.90;;;;;;4871751;29;20525;-80
2021/06/20 01:37:50;;;;;;;4.95;4.50;;;22.10;99.90;;;;;;4874588;29;21009;-78
2021/06/20 01:40:16;;;;;;;6.43;5.07;;;22.10;99.90;;;;;;4864911;29;20401;-78
2021/06/20 01:42:42;;;;;;;5.10;4.60;;;22.10;99.90;;;;;;4861777;29;20413;-77
2021/06/20 01:45:09;;;;;;;6.23;5.63;;;22.00;99.90;;;;;;4863749;29;20559;-78
2021/06/20 01:47:34;;;;;;;5.25;4.75;;;22.00;99.90;;;;;;4875027;29;20476;-77
2021/06/20 01:50:02;;;;;;;5.32;4.85;;;22.00;99.90;;;;;;4867748;29;20405;-78
2021/06/20 01:52:27;;;;;;;6.03;5.53;;;21.90;99.90;;;;;;4886014;29;20426;-77
2021/06/20 01:54:53;;;;;;;7.10;5.27;;;21.80;99.90;;;;;;4870154;29;20475;-77
2021/06/20 01:57:26;;;;;;;8.75;5.80;;;21.80;99.90;;;;;;4870127;29;20430;-78
2021/06/20 01:59:53;;;;;;;6.05;5.47;;;21.80;99.90;;;;;;4878477;29;20485;-78
2021/06/20 02:02:19;;;;;;;5.53;5.03;;;21.90;99.90;;;;;;4880040;29;20413;-77
2021/06/20 02:04:45;;;;;;;7.18;5.63;;;21.80;99.90;;;;;;4867082;29;20423;-78
2021/06/20 02:07:10;;;;;;;6.17;5.57;;;21.80;99.90;;;;;;4863968;29;20499;-77
2021/06/20 02:09:37;;;;;;;6.07;5.47;;;21.90;99.90;;;;;;4885805;29;20431;-77
2021/06/20 02:12:03;;;;;;;5.95;5.45;;;21.80;99.90;;;;;;4863356;29;20417;-77
2021/06/20 02:14:29;;;;;;;5.60;5.10;;;21.80;99.90;;;;;;4838802;29;20414;-77
2021/06/20 02:16:55;;;;;;;6.38;5.78;;;21.70;99.90;;;;;;4872354;29;20394;-77
2021/06/20 02:19:20;;;;;;;7.57;5.83;;;21.70;99.90;;;;;;4862770;29;20989;-78
2021/06/20 02:21:46;;;;;;;6.10;5.50;;;21.60;99.90;;;;;;4863375;29;20413;-77
2021/06/20 02:24:12;;;;;;;6.13;5.47;;;21.60;99.90;;;;;;4864051;29;20425;-78
2021/06/20 02:26:37;;;;;;;5.43;5.03;;;21.60;99.90;;;;;;4857653;29;20411;-80
2021/06/20 02:29:03;;;;;;;6.57;6.00;;;21.60;99.90;;;;;;4876593;29;20412;-80
2021/06/20 02:31:29;;;;;;;5.72;5.22;;;21.40;99.90;;;;;;4836935;29;20474;-84
2021/06/20 02:33:54;;;;;;;6.17;5.57;;;21.50;99.90;;;;;;4874572;29;20430;-82
2021/06/20 02:36:20;;;;;;;6.68;6.00;;;21.50;99.90;;;;;;4875031;29;20472;-81
2021/06/20 02:38:46;;;;;;;6.30;5.70;;;21.50;99.90;;;;;;4847770;29;20404;-81
2021/06/20 02:41:12;;;;;;;6.72;6.13;;;21.60;99.90;;;;;;4845820;29;20406;-81
2021/06/20 02:43:38;;;;;;;6.70;6.00;;;21.50;99.90;;;;;;4862724;29;20401;-80
2021/06/20 02:46:03;;;;;;;6.90;6.20;;;21.60;99.90;;;;;;4838195;29;20416;-81
2021/06/20 02:48:29;;;;;;;6.87;6.27;;;21.60;99.90;;;;;;4874957;29;20407;-81
2021/06/20 02:50:55;;;;;;;6.10;5.53;;;21.40;99.90;;;;;;4867679;29;20416;-81
2021/06/20 02:53:21;;;;;;;6.37;5.83;;;21.40;99.90;;;;;;4871651;29;20396;-81
2021/06/20 02:55:46;;;;;;;5.88;5.30;;;21.30;99.90;;;;;;4839087;29;20908;-81
2021/06/20 02:58:12;;;;;;;6.90;5.87;;;21.30;99.90;;;;;;4877463;29;20979;-81
2021/06/20 03:00:37;;;;;;;6.77;6.07;;;21.30;99.90;;;;;;4870751;29;20888;-84
2021/06/20 03:03:03;;;;;;;6.22;5.63;;;21.30;99.90;;;;;;4876994;29;20397;-81
2021/06/20 03:05:29;;;;;;;6.87;6.00;;;21.30;99.90;;;;;;4861603;29;20440;-81
2021/06/20 03:07:55;;;;;;;6.40;5.90;;;21.30;99.90;;;;;;4834331;29;20407;-81
2021/06/20 03:10:20;;;;;;;7.07;6.47;;;21.30;99.90;;;;;;4867209;29;20457;-80
2021/06/20 03:12:46;;;;;;;6.72;6.15;;;21.30;99.90;;;;;;4863478;29;20397;-80
2021/06/20 03:15:12;;;;;;;6.55;6.00;;;21.30;99.90;;;;;;4885500;29;20389;-81
2021/06/20 03:17:38;;;;;;;6.90;6.20;;;21.30;99.90;;;;;;4872949;29;20418;-81
2021/06/20 03:20:05;;;;;;;7.40;5.90;;;21.30;99.90;;;;;;4849246;29;20468;-81
2021/06/20 03:22:30;;;;;;;6.70;6.10;;;21.30;99.90;;;;;;4858390;29;20407;-81
2021/06/20 03:24:56;;;;;;;6.90;6.30;;;21.40;99.90;;;;;;4869463;29;20434;-81
2021/06/20 03:27:22;;;;;;;7.65;6.63;;;21.40;99.90;;;;;;4863920;29;20522;-81
2021/06/20 03:29:48;;;;;;;7.00;6.40;;;21.40;99.90;;;;;;4858436;29;20478;-81
2021/06/20 03:32:15;;;;;;;6.82;6.22;;;21.40;99.90;;;;;;4870760;29;20407;-81
2021/06/20 03:34:43;;;;;;;6.57;6.07;;;21.40;99.90;;;;;;4881915;29;20419;-80
2021/06/20 03:37:08;;;;;;;6.55;6.03;;;21.50;99.90;;;;;;4870456;29;20829;-84
2021/06/20 03:39:34;;;;;;;6.85;6.25;;;21.50;99.90;;;;;;4858346;29;20418;-80
2021/06/20 03:42:00;;;;;;;7.43;6.72;;;21.50;99.90;;;;;;4874287;29;20397;-81
2021/06/20 03:44:25;;;;;;;7.37;6.30;;;21.50;99.90;;;;;;4852302;29;20445;-81
2021/06/20 03:46:51;;;;;;;6.97;6.38;;;21.60;99.90;;;;;;4864192;29;20411;-81
2021/06/20 03:49:17;;;;;;;6.33;5.83;;;21.60;99.90;;;;;;4870142;29;21034;-80
2021/06/20 03:51:43;;;;;;;6.90;6.30;;;21.70;99.90;;;;;;4857462;29;20423;-80
2021/06/20 03:54:09;;;;;;;6.70;6.13;;;21.70;99.90;;;;;;4861061;29;20398;-80
2021/06/20 03:56:36;;;;;;;6.40;5.88;;;21.80;99.90;;;;;;4858687;29;20499;-79
2021/06/20 03:59:01;;;;;;;6.85;6.15;;;22.00;99.90;;;;;;4862364;29;20403;-81
2021/06/20 04:01:27;;;;;;;7.73;7.03;;;21.90;99.90;;;;;;4883118;29;20472;-83
2021/06/20 04:03:53;;;;;;;6.80;6.25;;;21.90;99.90;;;;;;4863326;29;20421;-81
2021/06/20 04:06:22;;;;;;;6.72;6.13;;;22.10;99.90;;;;;;4879229;29;20405;-85
2021/06/20 04:08:48;;;;;;;6.50;5.90;;;22.20;99.90;;;;;;4875113;29;20410;-81
2021/06/20 04:11:14;;;;;;;7.13;6.53;;;22.30;99.90;;;;;;4883474;29;20832;-81
2021/06/20 04:13:40;;;;;;;7.20;6.50;;;22.40;99.90;;;;;;4867388;29;20502;-83
2021/06/20 04:16:06;;;;;;;7.05;6.45;;;22.50;99.90;;;;;;4874457;29;20905;-82
2021/06/20 04:18:32;;;;;;;6.70;6.10;;;22.70;99.90;;;;;;4866846;29;20407;-81
2021/06/20 04:20:58;;;;;;;6.90;6.30;;;22.90;99.90;;;;;;4864672;29;20407;-82
2021/06/20 04:23:23;;;;;;;6.30;5.80;;;23.10;99.90;;;;;;4861804;29;20409;-79
2021/06/20 04:25:50;;;;;;;6.90;6.30;;;23.20;99.90;;;;;;4857917;29;20430;-83
2021/06/20 04:28:19;;;;;;;7.00;6.30;;;23.30;99.90;;;;;;4849980;29;20429;-80
2021/06/20 04:30:46;;;;;;;6.88;6.18;;;23.30;99.90;;;;;;4873386;29;20470;-79
2021/06/20 04:33:12;;;;;;;6.63;6.03;;;23.50;99.90;;;;;;4882016;29;20469;-79
2021/06/20 04:35:40;;;;;;;6.75;6.05;;;23.70;99.90;;;;;;4876808;29;20409;-79
2021/06/20 04:38:06;;;;;;;6.95;6.35;;;23.90;99.90;;;;;;4856220;29;20414;-79
2021/06/20 04:40:34;;;;;;;6.87;6.17;;;24.00;99.90;;;;;;4861400;29;20849;-79
2021/06/20 04:45:44;;;;;;;6.97;6.28;;;24.30;99.90;;;;;;4888617;29;21017;-79
2021/06/20 04:48:10;;;;;;;6.30;5.80;;;24.40;99.90;;;;;;4886241;29;20486;-79
2021/06/20 04:50:36;;;;;;;7.15;6.47;;;24.60;99.90;;;;;;4874510;29;20466;-79
2021/06/20 04:53:02;;;;;;;7.13;6.43;;;24.90;99.90;;;;;;4880861;29;20402;-79
2021/06/20 04:55:27;;;;;;;6.95;6.25;;;24.90;99.90;;;;;;4854383;29;20432;-80
2021/06/20 04:57:53;;;;;;;6.95;6.43;;;25.10;99.90;;;;;;4862326;29;21029;-81
2021/06/20 05:00:19;;;;;;;5.65;5.13;;;25.20;99.90;;;;;;4858034;29;20782;-80
2021/06/20 05:02:45;;;;;;;6.32;5.72;;;25.30;99.90;;;;;;4849435;29;20440;-82
2021/06/20 05:05:14;;;;;;;6.53;6.03;;;25.50;99.90;;;;;;4845002;29;20453;-82
2021/06/20 05:07:40;;;;;;;6.30;5.80;;;25.60;99.90;;;;;;4881416;29;20407;-81
2021/06/20 05:10:06;;;;;;;6.80;6.17;;;25.70;99.90;;;;;;4852202;29;20496;-82
2021/06/20 05:12:32;;;;;;;6.18;5.57;;;25.80;99.90;;;;;;4848779;29;20434;-79
2021/06/20 05:15:00;;;;;;;6.35;5.78;;;26.00;99.90;;;;;;4882445;29;20453;-79
2021/06/20 05:17:26;;;;;;;6.00;5.50;;;26.10;99.90;;;;;;4888733;29;20917;-80
2021/06/20 05:19:52;;;;;;;5.07;4.67;;;26.20;99.90;;;;;;4875031;29;20431;-79
2021/06/20 05:22:20;;;;;;;6.10;5.60;;;26.30;99.90;;;;;;4871899;29;20725;-79
2021/06/20 05:24:46;;;;;;;5.70;5.07;;;26.50;99.90;;;;;;4881303;29;20925;-79
2021/06/20 05:27:11;;;;;;;5.72;5.22;;;26.60;99.90;;;;;;4861503;29;20415;-80
2021/06/20 05:29:37;;;;;;;5.67;4.90;;;26.80;99.90;;;;;;4865247;29;20800;-80
2021/06/20 05:32:03;;;;;;;5.95;5.40;;;26.90;99.90;;;;;;4879677;29;20428;-79
2021/06/20 05:34:30;;;;;;;5.47;4.97;;;26.90;99.90;;;;;;4873171;29;20999;-83
2021/06/20 05:36:57;;;;;;;6.10;5.60;;;27.10;99.90;;;;;;4892415;29;20472;-81
2021/06/20 05:39:22;;;;;;;6.13;5.57;;;27.20;99.90;;;;;;4867379;29;20467;-80
2021/06/20 05:41:48;;;;;;;5.83;5.23;;;27.10;99.90;;;;;;4858157;29;20766;-77
2021/06/20 05:44:13;;;;;;;5.55;5.05;;;27.30;99.90;;;;;;4878678;29;20426;-80
2021/06/20 05:46:39;;;;;;;5.15;4.65;;;27.40;99.90;;;;;;4860998;29;20983;-81
2021/06/20 05:49:05;;;;;;;5.60;5.10;;;27.60;99.90;;;;;;4866330;29;20404;-81
2021/06/20 05:51:30;;;;;;;5.30;4.80;;;27.80;99.90;;;;;;4864548;29;20417;-80
2021/06/20 05:53:56;;;;;;;5.25;4.85;;;27.70;99.90;;;;;;4874764;29;20409;-81
2021/06/20 05:56:22;;;;;;;5.13;4.68;;;27.80;99.90;;;;;;4882426;29;20407;-81
2021/06/20 05:58:47;;;;;;;5.50;5.00;;;28.00;99.90;;;;;;4861881;29;20487;-82
2021/06/20 06:01:13;;;;;;;5.30;4.67;;;28.00;99.90;;;;;;4879615;29;20422;-81
2021/06/20 06:03:39;;;;;;;5.40;4.90;;;28.10;99.90;;;;;;4870854;29;20956;-81
2021/06/20 06:06:04;;;;;;;4.90;4.50;;;28.30;99.90;;;;;;4879555;29;20390;-81
2021/06/20 06:08:30;;;;;;;5.20;4.80;;;28.30;99.90;;;;;;4875609;29;20406;-80
2021/06/20 06:10:56;;;;;;;5.20;4.70;;;28.50;99.90;;;;;;4865246;29;20493;-81
2021/06/20 06:13:22;;;;;;;5.35;4.82;;;28.70;99.90;;;;;;4877690;29;20405;-82
2021/06/20 06:15:47;;;;;;;4.83;4.43;;;28.70;99.90;;;;;;4876830;29;20404;-81
2021/06/20 06:18:13;;;;;;;4.78;4.38;;;28.70;99.90;;;;;;4846066;29;20414;-82
2021/06/20 06:20:39;;;;;;;4.75;4.35;;;29.00;99.90;;;;;;4861998;29;20422;-81
2021/06/20 06:23:05;;;;;;;5.30;4.80;;;29.10;99.90;;;;;;4873664;29;20476;-81
2021/06/20 06:25:31;;;;;;;5.63;4.45;;;29.30;99.90;;;;;;4849228;29;20423;-82
2021/06/20 06:27:56;;;;;;;4.83;4.43;;;29.30;99.90;;;;;;4861203;29;20406;-81
2021/06/20 06:30:22;;;;;;;5.22;4.82;;;29.30;99.90;;;;;;4851727;29;21228;-81
2021/06/20 06:32:48;;;;;;;4.78;4.38;;;29.30;99.90;;;;;;4865017;29;20409;-81
2021/06/20 06:35:14;;;;;;;5.40;4.90;;;29.30;99.90;;;;;;4872753;29;20421;-81
2021/06/20 06:37:40;;;;;;;4.72;4.32;;;29.40;99.90;;;;;;4864360;29;20432;-81
2021/06/20 06:40:07;;;;;;;4.55;4.22;;;29.50;99.90;;;;;;4867541;29;20476;-80
2021/06/20 06:42:32;;;;;;;5.07;4.57;;;29.50;99.90;;;;;;4864204;29;20495;-80
2021/06/20 06:44:58;;;;;;;4.90;4.50;;;29.60;99.90;;;;;;4842877;29;20868;-80
2021/06/20 06:47:24;;;;;;;4.93;4.53;;;29.80;99.90;;;;;;4889719;29;20473;-80
2021/06/20 06:49:50;;;;;;;4.57;4.18;;;29.90;99.90;;;;;;4844867;29;20790;-80
2021/06/20 06:52:16;;;;;;;5.00;4.53;;;30.00;99.90;;;;;;4857878;29;20417;-80
2021/06/20 06:54:50;;;;;;;4.32;4.03;;;30.20;99.90;;;;;;4859900;29;20411;-81
2021/06/20 06:57:17;;;;;;;5.50;4.63;;;30.30;99.90;;;;;;4870087;29;20422;-80
2021/06/20 06:59:43;;;;;;;4.40;3.97;;;30.60;99.90;;;;;;4857164;29;20438;-80
2021/06/20 07:02:09;;;;;;;4.55;4.10;;;30.70;99.90;;;;;;4874352;29;20968;-79
2021/06/20 07:04:35;;;;;;;4.82;4.43;;;30.80;99.90;;;;;;4862637;29;20422;-79
2021/06/20 07:07:00;;;;;;;4.25;3.85;;;30.80;99.90;;;;;;4876808;29;20401;-80
2021/06/20 07:09:26;;;;;;;6.93;3.70;;;30.90;99.90;;;;;;4884121;29;20403;-81
2021/06/20 07:11:52;;;;;;;3.80;3.50;;;31.00;99.90;;;;;;4853687;29;20418;-81
2021/06/20 07:14:18;;;;;;;3.58;3.30;;;31.00;99.90;;;;;;4866184;29;20406;-81
2021/06/20 07:16:43;;;;;;;5.00;3.47;;;31.20;99.90;;;;;;4882496;29;20482;-79
2021/06/20 07:19:09;;;;;;;3.67;3.37;;;31.20;99.90;;;;;;4863254;29;20412;-81
2021/06/20 07:21:35;;;;;;;3.83;3.45;;;31.50;99.90;;;;;;4856033;29;20431;-79
2021/06/20 07:24:01;;;;;;;4.20;3.47;;;31.60;99.90;;;;;;4859472;29;20657;-79
2021/06/20 07:26:26;;;;;;;3.80;3.40;;;31.80;99.90;;;;;;4877295;29;20417;-83
2021/06/20 07:28:53;;;;;;;3.27;3.07;;;32.10;99.90;;;;;;4851824;29;20465;-81
2021/06/20 07:31:18;;;;;;;4.73;3.13;;;32.30;99.90;;;;;;4859307;29;20525;-84
2021/06/20 07:33:45;;;;;;;3.25;3.05;;;32.40;99.90;;;;;;4861988;29;20970;-82
2021/06/20 07:36:11;;;;;;;3.53;3.23;;;32.60;99.90;;;;;;4861263;29;20402;-82
2021/06/20 07:38:37;;;;;;;4.10;3.60;;;32.80;99.90;;;;;;4861369;29;20491;-84
2021/06/20 07:41:03;;;;;;;3.30;3.00;;;33.10;99.90;;;;;;4876391;29;20414;-84
2021/06/20 07:43:29;;;;;;;2.92;2.72;;;33.20;98.70;;;;;;4860982;29;20421;-84
2021/06/20 07:45:56;;;;;;;3.28;2.97;;;33.10;98.70;;;;;;4877994;29;20476;-82
2021/06/20 07:48:23;;;;;;;3.30;3.10;;;33.10;99.20;;;;;;4858295;29;20938;-84
2021/06/20 07:50:49;;;;;;;3.78;3.47;;;33.40;98.40;;;;;;4867469;29;20425;-83
2021/06/20 07:53:14;;;;;;;3.70;3.40;;;33.50;96.10;;;;;;4848300;29;20629;-82
2021/06/20 07:55:40;;;;;;;2.93;2.73;;;33.60;97.00;;;;;;4878481;29;20421;-82
2021/06/20 07:58:06;;;;;;;3.20;2.90;;;33.90;97.80;;;;;;4876697;29;20548;-82
2021/06/20 08:00:31;;;;;;;3.23;2.80;;;33.90;94.20;;;;;;4868597;29;20402;-82
2021/06/20 08:02:57;;;;;;;3.65;3.35;;;34.00;93.90;;;;;;4866898;29;20434;-81
2021/06/20 08:05:23;;;;;;;3.33;3.13;;;34.30;95.60;;;;;;4858275;29;20956;-82
2021/06/20 08:07:49;;;;;;;3.20;2.90;;;34.40;94.60;;;;;;4872515;29;20531;-82
2021/06/20 08:10:15;;;;;;;2.90;2.67;;;34.80;93.60;;;;;;4884622;29;20417;-81
2021/06/20 08:12:42;;;;;;;2.80;2.60;;;35.10;90.90;;;;;;4868888;29;21100;-83
2021/06/20 08:15:08;;;;;;;2.80;2.57;;;35.40;92.50;;;;;;4867370;29;20443;-85
2021/06/20 08:17:34;;;;;;;3.10;2.90;;;35.60;90.90;;;;;;4862039;29;20427;-85
2021/06/20 08:19:59;;;;;;;2.67;2.50;;;35.80;85.00;;;;;;4847520;29;20434;-83
2021/06/20 08:22:25;;;;;;;2.58;2.38;;;35.80;84.40;;;;;;4848888;29;20477;-84
2021/06/20 08:24:51;;;;;;;2.83;2.40;;;36.00;85.20;;;;;;4888538;29;20428;-82
2021/06/20 08:27:17;;;;;;;2.75;2.35;;;36.10;84.80;;;;;;4878976;29;20409;-84
2021/06/20 08:29:42;;;;;;;3.43;2.43;;;36.00;85.50;;;;;;4853824;29;20399;-83
2021/06/20 08:32:08;;;;;;;3.37;3.07;;;36.00;82.00;;;;;;4875140;29;20439;-84
2021/06/20 08:34:34;;;;;;;2.57;2.37;;;36.00;83.50;;;;;;4876583;29;20419;-80
2021/06/20 08:37:00;;;;;;;3.45;2.45;;;36.10;79.50;;;;;;4841547;29;20471;-84
2021/06/20 08:39:26;;;;;;;3.50;3.20;;;36.10;81.30;;;;;;4878793;29;20405;-83
2021/06/20 08:41:51;;;;;;;2.60;2.40;;;36.30;80.20;;;;;;4877311;29;20414;-82
2021/06/20 08:44:26;;;;;;;2.70;2.50;;;36.60;75.70;;;;;;4855438;29;20431;-87
2021/06/20 08:46:51;;;;;;;2.60;2.40;;;36.20;74.30;;;;;;4888233;29;20405;-86
2021/06/20 08:49:17;;;;;;;2.67;2.47;;;36.20;74.40;;;;;;4884458;29;20487;-86
2021/06/20 08:51:47;;;;;;;2.80;2.60;;;36.30;76.70;;;;;;4892499;29;20808;-84
2021/06/20 08:54:13;;;;;;;2.67;2.47;;;36.40;74.80;;;;;;4872389;29;20406;-85
2021/06/20 08:56:39;;;;;;;2.45;2.25;;;36.40;70.00;;;;;;4857552;29;20815;-84
2021/06/20 08:59:05;;;;;;;2.50;2.38;;;36.30;70.90;;;;;;4886151;29;21342;-87
2021/06/20 09:01:32;;;;;;;2.70;2.50;;;36.20;72.20;;;;;;4881876;29;20450;-85
2021/06/20 09:03:58;;;;;;;3.42;2.80;;;36.20;71.30;;;;;;4882720;29;20813;-87
2021/06/20 09:06:24;;;;;;;2.63;2.53;;;36.20;72.20;;;;;;4872075;29;20520;-82
2021/06/20 09:08:54;;;;;;;2.55;2.35;;;36.40;69.20;;;;;;4879887;29;20409;-84
2021/06/20 09:11:28;;;;;;;2.70;2.50;;;36.80;72.90;;;;;;4880583;29;20418;-84
2021/06/20 09:14:05;;;;;;;2.67;2.47;;;37.00;72.00;;;;;;4870710;29;21020;-84
2021/06/20 09:16:32;;;;;;;2.97;2.78;;;37.10;70.20;;;;;;4877521;29;20415;-85
2021/06/20 09:18:57;;;;;;;2.30;2.20;;;37.10;66.30;;;;;;4889903;29;20404;-83
2021/06/20 09:21:25;;;;;;;2.53;2.33;;;37.10;65.50;;;;;;4854086;29;20426;-86
2021/06/20 09:23:54;;;;;;;2.45;2.25;;;37.30;65.60;;;;;;4856469;29;20398;-84
2021/06/20 09:26:38;;;;;;;2.42;2.22;;;37.30;65.70;;;;;;4876935;29;20421;-82
2021/06/20 09:29:05;;;;;;;3.40;2.60;;;37.60;69.50;;;;;;4886957;29;20756;-84
2021/06/20 09:31:45;;;;;;;2.70;2.42;;;38.00;68.20;;;;;;4858617;29;20854;-81
2021/06/20 09:34:11;;;;;;;2.70;2.37;;;38.30;64.70;;;;;;4856117;29;20419;-85
2021/06/20 09:36:37;;;;;;;2.05;1.95;;;38.30;59.80;;;;;;4867570;29;20996;-86
2021/06/20 09:39:05;;;;;;;2.40;2.22;;;38.40;61.50;;;;;;4866976;29;20594;-85
2021/06/20 09:41:30;;;;;;;3.47;2.22;;;38.20;59.60;;;;;;4842455;29;20421;-83
2021/06/20 09:43:56;;;;;;;2.67;2.47;;;38.30;59.50;;;;;;4874343;29;20401;-82
2021/06/20 09:46:22;;;;;;;2.27;2.17;;;38.70;59.40;;;;;;4871820;29;20402;-85
2021/06/20 09:48:48;;;;;;;2.10;2.00;;;38.70;56.70;;;;;;4869009;29;20468;-83
2021/06/20 09:51:22;;;;;;;2.00;1.90;;;38.80;56.90;;;;;;4864774;29;20412;-84
2021/06/20 09:53:49;;;;;;;2.60;2.40;;;39.10;53.50;;;;;;4884702;29;20409;-82
2021/06/20 09:56:27;;;;;;;2.30;2.20;;;38.80;53.90;;;;;;4871298;29;20418;-82
2021/06/20 09:59:06;;;;;;;2.47;2.28;;;38.60;53.30;;;;;;4856180;29;20413;-83
2021/06/20 10:01:35;;;;;;;2.20;2.10;;;38.50;54.00;;;;;;4892345;29;20421;-88
2021/06/20 10:04:00;;;;;;;2.20;2.08;;;38.10;52.30;;;;;;4866942;29;20417;-86
2021/06/20 10:06:26;;;;;;;2.20;2.00;;;38.50;56.50;;;;;;4867581;29;20397;-87
2021/06/20 10:08:52;;;;;;;2.00;1.90;;;38.70;53.50;;;;;;4864278;29;20403;-85
2021/06/20 10:11:18;;;;;;;1.75;1.65;;;38.80;52.50;;;;;;4905774;29;20403;-85
2021/06/20 10:13:43;;;;;;;2.00;1.90;;;39.00;55.10;;;;;;4874970;29;20420;-83
2021/06/20 10:16:16;;;;;;;2.10;2.00;;;39.20;54.40;;;;;;4852890;29;20399;-84
2021/06/20 10:18:55;;;;;;;2.13;2.03;;;39.20;54.30;;;;;;4873991;29;20415;-86
2021/06/20 10:21:40;;;;;;;2.78;2.58;;;39.60;55.00;;;;;;4856548;29;20406;-86
2021/06/20 10:24:14;;;;;;;2.73;2.40;;;39.40;52.70;;;;;;4861843;29;20770;-84
2021/06/20 10:26:52;;;;;;;3.00;2.70;;;39.50;54.20;;;;;;4864032;29;20423;-85
2021/06/20 10:29:20;;;;;;;2.60;2.40;;;39.10;50.40;;;;;;4879775;29;20423;-83
2021/06/20 10:31:46;;;;;;;2.20;2.00;;;38.70;52.70;;;;;;4895093;29;20416;-85
2021/06/20 10:34:31;;;;;;;2.43;2.13;;;39.10;54.40;;;;;;4867124;29;20408;-85
2021/06/20 10:36:59;;;;;;;2.30;2.10;;;39.40;53.70;;;;;;4861952;29;20394;-88
2021/06/20 10:39:25;;;;;;;2.93;2.27;;;39.90;54.00;;;;;;4867404;29;20567;-83
2021/06/20 10:42:41;;;;;;;2.97;2.30;;;40.00;53.60;;;;;;4864004;29;20901;-83
2021/06/20 10:45:08;;;;;;;2.70;2.50;;;40.50;51.70;;;;;;4826320;29;20423;-83
2021/06/20 10:47:34;;;;;;;2.50;2.30;;;40.50;50.90;;;;;;4854815;29;20432;-85
2021/06/20 10:50:16;;;;;;;2.70;2.50;;;40.10;51.30;;;;;;4879964;29;20405;-82
2021/06/20 10:53:02;;;;;;;2.50;2.30;;;40.30;51.50;;;;;;4885410;29;20448;-82
2021/06/20 10:55:38;;;;;;;2.53;2.33;;;40.60;53.30;;;;;;4879961;29;20532;-82
2021/06/20 10:58:03;;;;;;;2.60;2.40;;;40.90;53.80;;;;;;4868358;29;20415;-83
2021/06/20 11:00:36;;;;;;;2.45;2.22;;;41.10;52.90;;;;;;4867540;29;20501;-82
2021/06/20 11:03:14;;;;;;;2.88;2.67;;;41.50;51.20;;;;;;4882762;29;20416;-81
2021/06/20 11:05:47;;;;;;;2.65;2.45;;;40.80;49.20;;;;;;4881105;29;20507;-85
2021/06/20 11:08:24;;;;;;;2.45;2.25;;;40.90;49.40;;;;;;4882449;29;20494;-83
2021/06/20 11:10:50;;;;;;;2.50;2.30;;;41.30;51.10;;;;;;4858479;29;20465;-83
2021/06/20 11:13:21;;;;;;;3.13;2.20;;;40.90;49.30;;;;;;4846679;29;20422;-83
2021/06/20 11:15:46;;;;;;;2.58;2.38;;;41.10;50.70;;;;;;4877569;29;20424;-83
2021/06/20 11:18:12;;;;;;;2.85;2.65;;;41.10;49.40;;;;;;4880711;29;20421;-81
2021/06/20 11:20:38;;;;;;;2.70;2.50;;;41.10;49.00;;;;;;4866299;29;20446;-83
2021/06/20 11:23:04;;;;;;;4.00;2.70;;;41.20;52.50;;;;;;4871451;29;20491;-81
2021/06/20 11:25:30;;;;;;;2.63;2.42;;;41.50;50.50;;;;;;4864052;29;20514;-81
2021/06/20 11:27:57;;;;;;;2.73;2.53;;;41.70;51.20;;;;;;4851910;29;20447;-82
2021/06/20 11:30:24;;;;;;;2.90;2.70;;;41.90;49.90;;;;;;4842471;29;20417;-82
2021/06/20 11:32:50;;;;;;;3.05;2.67;;;42.10;50.10;;;;;;4852518;29;20488;-81
2021/06/20 11:35:17;;;;;;;2.80;2.60;;;42.20;48.70;;;;;;4867332;29;20441;-84
2021/06/20 11:37:50;;;;;;;3.13;2.83;;;42.20;49.00;;;;;;4857203;29;20670;-82
2021/06/20 11:40:17;;;;;;;2.83;2.60;;;42.20;47.80;;;;;;4868573;29;20482;-84
2021/06/20 11:42:55;;;;;;;7.72;2.85;;;41.90;48.70;;;;;;4881210;29;20413;-83
2021/06/20 11:45:23;;;;;;;3.20;2.90;;;41.60;48.10;;;;;;4877867;29;20446;-84
2021/06/20 11:47:52;;;;;;;3.40;2.73;;;41.60;50.50;;;;;;4860232;29;20405;-85
2021/06/20 11:50:20;;;;;;;5.77;3.50;;;41.80;48.90;;;;;;4861336;29;20415;-81
2021/06/20 11:52:48;;;;;;;3.28;2.97;;;41.60;49.60;;;;;;4880810;29;20415;-81
2021/06/20 11:55:21;;;;;;;4.90;2.65;;;41.80;50.60;;;;;;4885006;29;20401;-82
2021/06/20 11:57:48;;;;;;;3.58;2.97;;;42.10;49.70;;;;;;4867554;29;20399;-84
2021/06/20 12:00:15;;;;;;;5.07;3.07;;;42.60;49.40;;;;;;4864512;29;20485;-81
2021/06/20 12:02:41;;;;;;;3.78;3.38;;;41.40;48.10;;;;;;4882251;29;20465;-84
2021/06/20 12:05:11;;;;;;;4.17;3.37;;;42.10;49.90;;;;;;4850248;29;20418;-81
2021/06/20 12:07:37;;;;;;;6.07;3.40;;;42.40;48.30;;;;;;4883898;29;20409;-82
2021/06/20 12:10:06;;;;;;;4.57;3.00;;;42.70;49.30;;;;;;4867061;29;20419;-85
2021/06/20 12:12:32;;;;;;;3.53;3.13;;;43.20;47.70;;;;;;4848877;29;20433;-80
2021/06/20 12:15:00;;;;;;;3.75;3.35;;;42.60;45.90;;;;;;4902923;29;20454;-80
2021/06/20 12:17:27;;;;;;;3.97;3.00;;;41.90;47.60;;;;;;4883960;29;20405;-81
2021/06/20 12:19:52;;;;;;;3.55;3.25;;;41.30;48.20;;;;;;4857236;29;20423;-84
2021/06/20 12:22:19;;;;;;;5.30;3.17;;;41.30;50.50;;;;;;4868735;29;20427;-81
2021/06/20 12:24:56;;;;;;;3.60;3.20;;;41.60;49.20;;;;;;4864403;29;20430;-80
2021/06/20 12:27:36;;;;;;;4.95;3.30;;;41.50;50.00;;;;;;4878124;29;20420;-81
2021/06/20 12:30:12;;;;;;;3.58;2.97;;;41.30;49.70;;;;;;4870430;29;20951;-87
2021/06/20 12:32:41;;;;;;;5.00;3.20;;;41.20;48.50;;;;;;4882086;29;20462;-82
2021/06/20 12:35:07;;;;;;;4.55;3.45;;;41.20;50.80;;;;;;4890253;29;20411;-81
2021/06/20 12:37:42;;;;;;;6.07;3.50;;;41.60;50.50;;;;;;4864908;29;20501;-82
2021/06/20 12:40:14;;;;;;;5.38;3.47;;;42.10;50.00;;;;;;4868753;29;20502;-82
2021/06/20 12:42:44;;;;;;;6.32;4.00;;;42.30;48.80;;;;;;4886362;29;20430;-83
2021/06/20 12:45:34;;;;;;;4.93;3.30;;;42.20;48.20;;;;;;4887775;29;20508;-84
2021/06/20 12:48:11;;;;;;;6.35;3.97;;;42.40;49.90;;;;;;4867259;29;20415;-84
2021/06/20 12:50:37;;;;;;;4.50;3.53;;;42.70;50.00;;;;;;4866672;29;20426;-83